KEED

Needles Airport

Needles, California, USA
METAR KEED 231556Z AUTO 29010KT 10SM FEW110 11/M05 A3010 RMK AO2 SLP180 T01111050
Observed Flight Rules
Feb-23 @ 15:56 UTC (40 minutes ago) Visual Flight Rules
Wind Visibility Clouds
290° at 10 knots 10 miles
  • Few at 11,000' AGL
Temperatures Readings
Current 11°C / 52°F
Dewpoint -5°C / 23°F
Humidity 32%
Altimeter 30.1" Hg
Pressure 1018 hPa
Elevation 302
METAR KEED 231556Z AUTO 29010KT 10SM FEW110 11/M05 A3010 RMK AO2 SLP180 T01111050
Observed Flight Rules
Feb-23 @ 15:56 UTC
(40 minutes ago)
VFR
Wind Visibility
290° at 10 knots 10 miles
Clouds
  • Few at 11,000' AGL
Temperature Dewpoint
11°C / 52°F -5°C / 23°F
Humidity Altimeter Pressure
32% 30.1" Hg 1018 hPa